Terminal Aerodrome Forecast
Issued by NWS Duluth, MN

Home | Current Version | Previous Version | Text Only | Print | Product List | Glossary On
Versions: 1 2 3 4 5 6 7 8 9 10 11 12 13 14 15 16 17 18 19 20 21 22
000
FTUS43 KDLH 050536
TAFINL
TAF
KINL 050536Z 0506/0606 14008KT 6SM -RA VCTS SCT025 OVC060CB
     FM050800 15007KT 3SM BR VCSH FEW002 OVC100
     FM051600 17010KT P6SM SCT030 SCT100
     FM052000 18010G17KT P6SM BKN050
     FM060000 15005KT P6SM VCSH OVC050 WS020/19035KT=

USA.gov is the U.S. government's official web portal to all federal, state and local government web resources and services.